sensor_id;sensor_type;location;lat;lon;timestamp;pressure;altitude;pressure_sealevel;temperature;humidity
13604;BME280;24578;48.264;11.436;2023-03-15T00:02:23;95441.75;;;2.92;100.00
13604;BME280;24578;48.264;11.436;2023-03-15T00:05:47;95448.50;;;2.93;100.00
13604;BME280;24578;48.264;11.436;2023-03-15T00:09:09;95453.63;;;2.93;100.00
13604;BME280;24578;48.264;11.436;2023-03-15T00:12:32;95454.19;;;2.82;100.00
13604;BME280;24578;48.264;11.436;2023-03-15T00:16:18;95460.91;;;2.85;100.00
13604;BME280;24578;48.264;11.436;2023-03-15T00:19:39;95459.91;;;2.71;100.00
13604;BME280;24578;48.264;11.436;2023-03-15T00:23:01;95460.69;;;2.40;100.00
13604;BME280;24578;48.264;11.436;2023-03-15T00:26:23;95456.03;;;2.15;100.00
13604;BME280;24578;48.264;11.436;2023-03-15T00:29:44;95460.81;;;2.21;100.00
13604;BME280;24578;48.264;11.436;2023-03-15T00:33:07;95476.84;;;1.89;100.00
13604;BME280;24578;48.264;11.436;2023-03-15T00:36:31;95487.28;;;1.49;100.00
13604;BME280;24578;48.264;11.436;2023-03-15T00:39:53;95481.09;;;1.18;100.00
13604;BME280;24578;48.264;11.436;2023-03-15T00:43:16;95499.66;;;1.03;100.00
13604;BME280;24578;48.264;11.436;2023-03-15T00:46:38;95507.06;;;0.90;100.00
13604;BME280;24578;48.264;11.436;2023-03-15T00:50:00;95503.13;;;0.44;100.00
13604;BME280;24578;48.264;11.436;2023-03-15T00:53:21;95493.94;;;0.21;100.00
13604;BME280;24578;48.264;11.436;2023-03-15T00:56:43;95503.34;;;0.19;100.00
13604;BME280;24578;48.264;11.436;2023-03-15T01:00:07;95495.06;;;0.14;100.00
13604;BME280;24578;48.264;11.436;2023-03-15T01:03:30;95498.47;;;0.14;100.00
13604;BME280;24578;48.264;11.436;2023-03-15T01:06:51;95491.84;;;0.10;100.00
13604;BME280;24578;48.264;11.436;2023-03-15T01:10:14;95492.72;;;0.09;100.00
13604;BME280;24578;48.264;11.436;2023-03-15T01:13:37;95489.97;;;0.14;100.00
13604;BME280;24578;48.264;11.436;2023-03-15T01:16:58;95488.13;;;0.18;100.00
13604;BME280;24578;48.264;11.436;2023-03-15T01:20:20;95484.97;;;0.12;100.00
13604;BME280;24578;48.264;11.436;2023-03-15T01:23:42;95477.81;;;0.21;100.00
13604;BME280;24578;48.264;11.436;2023-03-15T01:27:04;95471.91;;;0.20;100.00
13604;BME280;24578;48.264;11.436;2023-03-15T01:30:25;95471.69;;;0.25;100.00
13604;BME280;24578;48.264;11.436;2023-03-15T01:33:47;95471.91;;;0.20;100.00
13604;BME280;24578;48.264;11.436;2023-03-15T01:37:10;95469.38;;;0.20;100.00
13604;BME280;24578;48.264;11.436;2023-03-15T01:40:40;95500.59;;;0.24;100.00
13604;BME280;24578;48.264;11.436;2023-03-15T01:44:02;95493.16;;;0.19;100.00
13604;BME280;24578;48.264;11.436;2023-03-15T01:47:24;95495.31;;;0.28;100.00
13604;BME280;24578;48.264;11.436;2023-03-15T01:50:46;95501.28;;;0.27;100.00
13604;BME280;24578;48.264;11.436;2023-03-15T01:54:30;95515.06;;;0.23;100.00
13604;BME280;24578;48.264;11.436;2023-03-15T01:57:57;95520.28;;;0.20;100.00
13604;BME280;24578;48.264;11.436;2023-03-15T02:01:21;95519.38;;;0.21;100.00
13604;BME280;24578;48.264;11.436;2023-03-15T02:04:49;95519.31;;;0.23;100.00
13604;BME280;24578;48.264;11.436;2023-03-15T02:08:15;95522.84;;;0.39;100.00
13604;BME280;24578;48.264;11.436;2023-03-15T02:11:38;95532.22;;;0.39;100.00
13604;BME280;24578;48.264;11.436;2023-03-15T02:15:04;95531.84;;;0.27;100.00
13604;BME280;24578;48.264;11.436;2023-03-15T02:18:26;95534.13;;;0.34;100.00
13604;BME280;24578;48.264;11.436;2023-03-15T02:22:09;95535.25;;;0.47;100.00
13604;BME280;24578;48.264;11.436;2023-03-15T02:25:50;95546.09;;;0.32;100.00
13604;BME280;24578;48.264;11.436;2023-03-15T02:29:15;95562.72;;;0.20;100.00
13604;BME280;24578;48.264;11.436;2023-03-15T02:32:37;95573.91;;;-0.05;100.00
13604;BME280;24578;48.264;11.436;2023-03-15T02:39:29;95609.06;;;-0.15;100.00
13604;BME280;24578;48.264;11.436;2023-03-15T02:42:56;95606.91;;;-0.04;100.00
13604;BME280;24578;48.264;11.436;2023-03-15T02:46:20;95615.28;;;-0.22;100.00
13604;BME280;24578;48.264;11.436;2023-03-15T02:49:45;95637.81;;;-0.13;100.00
13604;BME280;24578;48.264;11.436;2023-03-15T02:53:09;95646.81;;;-0.04;100.00
13604;BME280;24578;48.264;11.436;2023-03-15T02:56:32;95662.28;;;-0.09;100.00
13604;BME280;24578;48.264;11.436;2023-03-15T02:59:54;95678.91;;;0.00;100.00
13604;BME280;24578;48.264;11.436;2023-03-15T03:03:17;95682.38;;;-0.03;100.00
13604;BME280;24578;48.264;11.436;2023-03-15T03:06:39;95699.88;;;-0.17;100.00
13604;BME280;24578;48.264;11.436;2023-03-15T03:10:05;95722.06;;;-0.43;100.00
13604;BME280;24578;48.264;11.436;2023-03-15T03:13:27;95731.38;;;-0.43;100.00
13604;BME280;24578;48.264;11.436;2023-03-15T03:16:49;95730.16;;;-0.57;100.00
13604;BME280;24578;48.264;11.436;2023-03-15T03:20:12;95756.44;;;-0.56;100.00
13604;BME280;24578;48.264;11.436;2023-03-15T03:23:35;95768.88;;;-0.49;100.00
13604;BME280;24578;48.264;11.436;2023-03-15T03:26:57;95766.94;;;-0.42;100.00
13604;BME280;24578;48.264;11.436;2023-03-15T03:30:18;95771.91;;;-0.39;100.00
13604;BME280;24578;48.264;11.436;2023-03-15T03:33:40;95798.44;;;-0.46;100.00
13604;BME280;24578;48.264;11.436;2023-03-15T03:37:02;95806.63;;;-0.38;100.00
13604;BME280;24578;48.264;11.436;2023-03-15T03:40:24;95805.63;;;-0.34;100.00
13604;BME280;24578;48.264;11.436;2023-03-15T03:43:46;95826.09;;;-0.37;100.00
13604;BME280;24578;48.264;11.436;2023-03-15T03:47:08;95841.34;;;-0.37;100.00
13604;BME280;24578;48.264;11.436;2023-03-15T03:50:29;95854.34;;;-0.44;100.00
13604;BME280;24578;48.264;11.436;2023-03-15T03:53:52;95857.50;;;-0.38;100.00
13604;BME280;24578;48.264;11.436;2023-03-15T03:57:13;95860.38;;;-0.47;100.00
13604;BME280;24578;48.264;11.436;2023-03-15T04:00:35;95877.19;;;-0.43;100.00
13604;BME280;24578;48.264;11.436;2023-03-15T04:03:57;95882.44;;;-0.48;100.00
13604;BME280;24578;48.264;11.436;2023-03-15T04:07:19;95884.97;;;-0.48;100.00
13604;BME280;24578;48.264;11.436;2023-03-15T04:10:41;95900.38;;;-0.52;100.00
13604;BME280;24578;48.264;11.436;2023-03-15T04:14:03;95910.88;;;-0.36;100.00
13604;BME280;24578;48.264;11.436;2023-03-15T04:17:24;95907.88;;;-0.48;100.00
13604;BME280;24578;48.264;11.436;2023-03-15T04:20:46;95918.22;;;-0.54;100.00
13604;BME280;24578;48.264;11.436;2023-03-15T04:24:08;95925.78;;;-0.52;100.00
13604;BME280;24578;48.264;11.436;2023-03-15T04:27:30;95922.72;;;-0.62;100.00
13604;BME280;24578;48.264;11.436;2023-03-15T04:30:52;95927.78;;;-0.60;100.00
13604;BME280;24578;48.264;11.436;2023-03-15T04:34:19;95944.38;;;-0.50;100.00
13604;BME280;24578;48.264;11.436;2023-03-15T04:37:40;95950.56;;;-0.57;100.00
13604;BME280;24578;48.264;11.436;2023-03-15T04:41:02;95958.84;;;-0.52;100.00
13604;BME280;24578;48.264;11.436;2023-03-15T04:44:31;95963.28;;;-0.57;100.00
13604;BME280;24578;48.264;11.436;2023-03-15T04:47:54;95975.38;;;-0.66;100.00
13604;BME280;24578;48.264;11.436;2023-03-15T04:51:15;95988.97;;;-0.67;100.00
13604;BME280;24578;48.264;11.436;2023-03-15T04:54:37;95988.34;;;-0.73;100.00
13604;BME280;24578;48.264;11.436;2023-03-15T04:57:59;96003.66;;;-0.75;100.00
13604;BME280;24578;48.264;11.436;2023-03-15T05:01:27;96006.19;;;-0.75;100.00
13604;BME280;24578;48.264;11.436;2023-03-15T05:04:50;96004.53;;;-0.76;100.00
13604;BME280;24578;48.264;11.436;2023-03-15T05:08:12;96013.69;;;-0.70;100.00
13604;BME280;24578;48.264;11.436;2023-03-15T05:11:34;96005.25;;;-0.72;100.00
13604;BME280;24578;48.264;11.436;2023-03-15T05:14:55;96017.72;;;-0.65;100.00
13604;BME280;24578;48.264;11.436;2023-03-15T05:18:17;96035.53;;;-0.65;100.00
13604;BME280;24578;48.264;11.436;2023-03-15T05:21:39;96036.50;;;-0.69;100.00
13604;BME280;24578;48.264;11.436;2023-03-15T05:25:02;96045.38;;;-0.82;100.00
13604;BME280;24578;48.264;11.436;2023-03-15T05:28:25;96045.28;;;-0.79;100.00
13604;BME280;24578;48.264;11.436;2023-03-15T05:31:47;96050.19;;;-0.73;100.00
13604;BME280;24578;48.264;11.436;2023-03-15T05:35:11;96069.03;;;-0.80;100.00
13604;BME280;24578;48.264;11.436;2023-03-15T05:38:32;96080.09;;;-0.81;100.00
13604;BME280;24578;48.264;11.436;2023-03-15T05:41:54;96085.31;;;-0.86;100.00
13604;BME280;24578;48.264;11.436;2023-03-15T05:45:16;96085.44;;;-0.90;100.00
13604;BME280;24578;48.264;11.436;2023-03-15T05:48:38;96094.66;;;-0.86;100.00
13604;BME280;24578;48.264;11.436;2023-03-15T05:51:59;96095.25;;;-0.78;100.00
13604;BME280;24578;48.264;11.436;2023-03-15T05:55:21;96102.38;;;-0.91;100.00
13604;BME280;24578;48.264;11.436;2023-03-15T05:58:43;96111.75;;;-0.92;100.00
13604;BME280;24578;48.264;11.436;2023-03-15T06:02:05;96126.72;;;-0.82;100.00
13604;BME280;24578;48.264;11.436;2023-03-15T06:05:27;96127.59;;;-0.83;100.00
13604;BME280;24578;48.264;11.436;2023-03-15T06:08:49;96131.72;;;-0.79;100.00
13604;BME280;24578;48.264;11.436;2023-03-15T06:12:10;96133.81;;;-0.94;100.00
13604;BME280;24578;48.264;11.436;2023-03-15T06:15:32;96146.53;;;-0.94;100.00
13604;BME280;24578;48.264;11.436;2023-03-15T06:18:54;96142.72;;;-0.79;100.00
13604;BME280;24578;48.264;11.436;2023-03-15T06:22:16;96147.78;;;-0.20;100.00
13604;BME280;24578;48.264;11.436;2023-03-15T06:25:40;96138.84;;;1.44;100.00
13604;BME280;24578;48.264;11.436;2023-03-15T06:29:02;96139.31;;;3.22;100.00
13604;BME280;24578;48.264;11.436;2023-03-15T06:32:24;96143.44;;;3.82;100.00
13604;BME280;24578;48.264;11.436;2023-03-15T06:35:46;96144.84;;;4.60;100.00
13604;BME280;24578;48.264;11.436;2023-03-15T06:39:08;96151.38;;;5.50;100.00
13604;BME280;24578;48.264;11.436;2023-03-15T06:42:33;96155.56;;;4.33;100.00
13604;BME280;24578;48.264;11.436;2023-03-15T06:45:55;96165.56;;;3.07;100.00
13604;BME280;24578;48.264;11.436;2023-03-15T06:49:19;96161.41;;;4.00;100.00
13604;BME280;24578;48.264;11.436;2023-03-15T06:52:41;96160.13;;;4.08;100.00
13604;BME280;24578;48.264;11.436;2023-03-15T06:56:02;96155.94;;;4.78;100.00
13604;BME280;24578;48.264;11.436;2023-03-15T06:59:24;96154.78;;;5.83;100.00
13604;BME280;24578;48.264;11.436;2023-03-15T07:02:46;96156.50;;;6.75;100.00
13604;BME280;24578;48.264;11.436;2023-03-15T07:06:08;96162.41;;;7.50;100.00
13604;BME280;24578;48.264;11.436;2023-03-15T07:09:30;96166.75;;;8.46;100.00
13604;BME280;24578;48.264;11.436;2023-03-15T07:12:52;96154.34;;;9.30;100.00
13604;BME280;24578;48.264;11.436;2023-03-15T07:16:13;96154.34;;;10.29;96.98
13604;BME280;24578;48.264;11.436;2023-03-15T07:19:35;96168.81;;;10.80;83.92
13604;BME280;24578;48.264;11.436;2023-03-15T07:22:57;96173.75;;;10.83;80.88
13604;BME280;24578;48.264;11.436;2023-03-15T07:26:19;96173.09;;;11.04;81.79
13604;BME280;24578;48.264;11.436;2023-03-15T07:29:40;96183.59;;;11.70;69.71
13604;BME280;24578;48.264;11.436;2023-03-15T07:33:02;96173.22;;;11.70;66.14
13604;BME280;24578;48.264;11.436;2023-03-15T07:36:24;96186.22;;;12.37;60.04
13604;BME280;24578;48.264;11.436;2023-03-15T07:39:46;96188.06;;;12.14;60.32
13604;BME280;24578;48.264;11.436;2023-03-15T07:43:07;96188.78;;;11.70;62.32
13604;BME280;24578;48.264;11.436;2023-03-15T07:46:29;96186.09;;;11.72;62.36
13604;BME280;24578;48.264;11.436;2023-03-15T07:49:51;96191.38;;;12.48;58.67
13604;BME280;24578;48.264;11.436;2023-03-15T07:53:13;96192.22;;;13.13;55.46
13604;BME280;24578;48.264;11.436;2023-03-15T07:56:35;96195.13;;;14.22;51.64
13604;BME280;24578;48.264;11.436;2023-03-15T07:59:57;96195.78;;;12.90;51.86
13604;BME280;24578;48.264;11.436;2023-03-15T08:03:19;96190.06;;;13.70;50.71
13604;BME280;24578;48.264;11.436;2023-03-15T08:06:40;96178.97;;;14.58;48.69
13604;BME280;24578;48.264;11.436;2023-03-15T08:10:03;96185.16;;;13.24;48.95
13604;BME280;24578;48.264;11.436;2023-03-15T08:13:26;96179.97;;;13.86;50.97
13604;BME280;24578;48.264;11.436;2023-03-15T08:16:49;96187.13;;;13.32;48.45
13604;BME280;24578;48.264;11.436;2023-03-15T08:20:12;96184.09;;;13.27;50.32
13604;BME280;24578;48.264;11.436;2023-03-15T08:23:43;96187.50;;;9.99;56.77
13604;BME280;24578;48.264;11.436;2023-03-15T08:27:05;96208.06;;;8.04;69.12
13604;BME280;24578;48.264;11.436;2023-03-15T08:30:27;96198.94;;;7.27;74.13
13604;BME280;24578;48.264;11.436;2023-03-15T08:33:48;96212.56;;;7.29;78.87
13604;BME280;24578;48.264;11.436;2023-03-15T08:37:11;96193.22;;;7.66;74.75
13604;BME280;24578;48.264;11.436;2023-03-15T08:40:32;96202.97;;;8.17;71.87
13604;BME280;24578;48.264;11.436;2023-03-15T08:43:54;96192.47;;;9.01;66.50
13604;BME280;24578;48.264;11.436;2023-03-15T08:47:16;96176.88;;;12.02;57.17
13604;BME280;24578;48.264;11.436;2023-03-15T08:50:37;96166.91;;;14.08;45.39
13604;BME280;24578;48.264;11.436;2023-03-15T08:53:59;96158.41;;;15.42;43.82
13604;BME280;24578;48.264;11.436;2023-03-15T08:57:25;96163.13;;;16.22;36.13
13604;BME280;24578;48.264;11.436;2023-03-15T09:00:50;96166.06;;;16.09;35.38
13604;BME280;24578;48.264;11.436;2023-03-15T09:04:12;96165.28;;;14.85;38.96
13604;BME280;24578;48.264;11.436;2023-03-15T09:07:33;96177.34;;;15.44;39.00
13604;BME280;24578;48.264;11.436;2023-03-15T09:10:56;96165.81;;;14.89;38.49
13604;BME280;24578;48.264;11.436;2023-03-15T09:14:18;96164.72;;;14.52;37.64
13604;BME280;24578;48.264;11.436;2023-03-15T09:17:42;96171.63;;;13.83;38.58
13604;BME280;24578;48.264;11.436;2023-03-15T09:21:05;96182.03;;;13.83;38.41
13604;BME280;24578;48.264;11.436;2023-03-15T09:24:27;96174.00;;;14.06;37.65
13604;BME280;24578;48.264;11.436;2023-03-15T09:27:49;96188.69;;;12.39;38.78
13604;BME280;24578;48.264;11.436;2023-03-15T09:31:11;96195.97;;;11.33;41.00
13604;BME280;24578;48.264;11.436;2023-03-15T09:34:34;96194.19;;;11.22;42.37
13604;BME280;24578;48.264;11.436;2023-03-15T09:37:57;96193.75;;;12.40;39.80
13604;BME280;24578;48.264;11.436;2023-03-15T09:49:17;96195.25;;;11.19;39.70
13604;BME280;24578;48.264;11.436;2023-03-15T09:53:01;96205.47;;;10.62;42.02
13604;BME280;24578;48.264;11.436;2023-03-15T09:56:30;96211.78;;;9.97;43.95
13604;BME280;24578;48.264;11.436;2023-03-15T09:59:55;96202.28;;;10.94;41.37
13604;BME280;24578;48.264;11.436;2023-03-15T10:03:29;96206.34;;;12.01;39.18
13604;BME280;24578;48.264;11.436;2023-03-15T10:06:56;96211.88;;;11.96;39.46
13604;BME280;24578;48.264;11.436;2023-03-15T10:10:22;96222.63;;;9.39;44.63
13604;BME280;24578;48.264;11.436;2023-03-15T10:14:02;96213.34;;;8.97;46.28
13604;BME280;24578;48.264;11.436;2023-03-15T10:17:31;96218.22;;;8.62;47.49
13604;BME280;24578;48.264;11.436;2023-03-15T10:21:04;96216.03;;;9.60;45.48
13604;BME280;24578;48.264;11.436;2023-03-15T10:28:23;96195.06;;;13.31;36.71
13604;BME280;24578;48.264;11.436;2023-03-15T10:31:46;96192.28;;;13.75;35.70
13604;BME280;24578;48.264;11.436;2023-03-15T10:35:16;96192.66;;;14.30;36.28
13604;BME280;24578;48.264;11.436;2023-03-15T10:38:38;96185.91;;;15.26;34.75
13604;BME280;24578;48.264;11.436;2023-03-15T10:42:02;96172.44;;;16.97;31.18
13604;BME280;24578;48.264;11.436;2023-03-15T10:45:24;96184.81;;;16.22;32.33
13604;BME280;24578;48.264;11.436;2023-03-15T10:49:14;96176.16;;;15.28;33.31
13604;BME280;24578;48.264;11.436;2023-03-15T10:52:38;96168.50;;;15.27;32.02
13604;BME280;24578;48.264;11.436;2023-03-15T10:56:07;96171.59;;;14.83;33.01
13604;BME280;24578;48.264;11.436;2023-03-15T10:59:34;96178.66;;;12.88;34.24
13604;BME280;24578;48.264;11.436;2023-03-15T11:03:03;96190.13;;;10.84;39.13
13604;BME280;24578;48.264;11.436;2023-03-15T11:06:27;96176.59;;;9.70;42.66
13604;BME280;24578;48.264;11.436;2023-03-15T11:09:57;96180.47;;;10.26;40.71
13604;BME280;24578;48.264;11.436;2023-03-15T11:13:22;96174.78;;;11.39;39.09
13604;BME280;24578;48.264;11.436;2023-03-15T11:16:51;96170.13;;;12.97;36.06
13604;BME280;24578;48.264;11.436;2023-03-15T11:23:55;96160.09;;;12.92;32.72
13604;BME280;24578;48.264;11.436;2023-03-15T11:27:21;96168.13;;;13.32;33.12
13604;BME280;24578;48.264;11.436;2023-03-15T11:30:45;96165.25;;;13.56;33.62
13604;BME280;24578;48.264;11.436;2023-03-15T11:34:20;96172.91;;;11.52;35.11
13604;BME280;24578;48.264;11.436;2023-03-15T11:37:50;96169.59;;;11.73;34.91
13604;BME280;24578;48.264;11.436;2023-03-15T11:41:35;96160.38;;;11.80;33.69
13604;BME280;24578;48.264;11.436;2023-03-15T11:45:38;96166.59;;;11.89;35.28
13604;BME280;24578;48.264;11.436;2023-03-15T11:53:05;96155.22;;;13.92;34.08
13604;BME280;24578;48.264;11.436;2023-03-15T11:56:46;96138.00;;;14.50;30.38
13604;BME280;24578;48.264;11.436;2023-03-15T12:03:43;96131.50;;;13.95;31.14
13604;BME280;24578;48.264;11.436;2023-03-15T12:07:26;96131.59;;;13.64;31.12
13604;BME280;24578;48.264;11.436;2023-03-15T12:10:48;96121.31;;;13.01;33.77
13604;BME280;24578;48.264;11.436;2023-03-15T12:14:29;96117.06;;;13.31;31.73
13604;BME280;24578;48.264;11.436;2023-03-15T12:17:57;96133.06;;;12.53;32.49
13604;BME280;24578;48.264;11.436;2023-03-15T12:21:30;96126.03;;;11.99;36.73
13604;BME280;24578;48.264;11.436;2023-03-15T12:24:52;96119.69;;;11.92;36.19
13604;BME280;24578;48.264;11.436;2023-03-15T12:28:39;96115.63;;;11.55;36.01
13604;BME280;24578;48.264;11.436;2023-03-15T12:35:38;96100.41;;;12.81;36.21
13604;BME280;24578;48.264;11.436;2023-03-15T12:39:40;96112.97;;;11.90;34.74
13604;BME280;24578;48.264;11.436;2023-03-15T12:43:02;96107.97;;;11.08;37.08
13604;BME280;24578;48.264;11.436;2023-03-15T12:50:37;96119.91;;;10.28;38.10
13604;BME280;24578;48.264;11.436;2023-03-15T12:54:00;96127.75;;;9.54;39.03
13604;BME280;24578;48.264;11.436;2023-03-15T12:57:48;96128.72;;;9.77;39.55
13604;BME280;24578;48.264;11.436;2023-03-15T13:01:15;96129.97;;;9.34;41.36
13604;BME280;24578;48.264;11.436;2023-03-15T13:04:37;96137.31;;;9.14;40.26
13604;BME280;24578;48.264;11.436;2023-03-15T13:08:08;96128.03;;;8.86;41.42
13604;BME280;24578;48.264;11.436;2023-03-15T13:12:08;96133.09;;;8.62;41.17
13604;BME280;24578;48.264;11.436;2023-03-15T13:15:48;96133.47;;;8.15;42.15
13604;BME280;24578;48.264;11.436;2023-03-15T13:19:21;96138.69;;;8.01;43.15
13604;BME280;24578;48.264;11.436;2023-03-15T13:30:33;96131.13;;;8.25;44.03
13604;BME280;24578;48.264;11.436;2023-03-15T13:34:21;96126.16;;;8.22;42.59
13604;BME280;24578;48.264;11.436;2023-03-15T13:37:44;96127.47;;;7.87;44.26
13604;BME280;24578;48.264;11.436;2023-03-15T13:41:22;96135.53;;;7.68;45.28
13604;BME280;24578;48.264;11.436;2023-03-15T13:44:44;96126.06;;;7.96;43.77
13604;BME280;24578;48.264;11.436;2023-03-15T13:48:06;96119.09;;;8.11;44.03
13604;BME280;24578;48.264;11.436;2023-03-15T13:51:36;96136.56;;;7.66;43.77
13604;BME280;24578;48.264;11.436;2023-03-15T13:55:00;96124.69;;;7.49;44.23
13604;BME280;24578;48.264;11.436;2023-03-15T13:58:24;96131.06;;;7.43;44.40
13604;BME280;24578;48.264;11.436;2023-03-15T14:01:49;96121.25;;;7.77;42.72
13604;BME280;24578;48.264;11.436;2023-03-15T14:05:19;96124.84;;;7.74;43.28
13604;BME280;24578;48.264;11.436;2023-03-15T14:08:47;96126.34;;;8.19;44.88
13604;BME280;24578;48.264;11.436;2023-03-15T14:12:19;96135.25;;;8.28;42.79
13604;BME280;24578;48.264;11.436;2023-03-15T14:15:43;96127.53;;;8.41;43.89
13604;BME280;24578;48.264;11.436;2023-03-15T14:19:20;96122.91;;;8.46;44.05
13604;BME280;24578;48.264;11.436;2023-03-15T14:22:42;96130.63;;;8.05;44.40
13604;BME280;24578;48.264;11.436;2023-03-15T14:26:12;96133.78;;;7.69;42.96
13604;BME280;24578;48.264;11.436;2023-03-15T14:29:45;96135.03;;;7.34;45.11
13604;BME280;24578;48.264;11.436;2023-03-15T14:33:28;96140.53;;;7.42;46.59
13604;BME280;24578;48.264;11.436;2023-03-15T14:36:52;96140.47;;;7.15;44.13
13604;BME280;24578;48.264;11.436;2023-03-15T14:40:26;96139.16;;;6.93;45.23
13604;BME280;24578;48.264;11.436;2023-03-15T14:43:48;96132.16;;;6.66;46.08
13604;BME280;24578;48.264;11.436;2023-03-15T14:47:14;96144.19;;;6.66;46.86
13604;BME280;24578;48.264;11.436;2023-03-15T14:50:39;96144.03;;;6.69;46.41
13604;BME280;24578;48.264;11.436;2023-03-15T14:54:02;96144.59;;;6.44;45.97
13604;BME280;24578;48.264;11.436;2023-03-15T14:57:24;96138.44;;;6.46;46.72
13604;BME280;24578;48.264;11.436;2023-03-15T15:00:52;96144.84;;;6.69;48.15
13604;BME280;24578;48.264;11.436;2023-03-15T15:04:15;96137.44;;;6.94;45.46
13604;BME280;24578;48.264;11.436;2023-03-15T15:07:37;96138.97;;;6.82;45.71
13604;BME280;24578;48.264;11.436;2023-03-15T15:10:59;96136.69;;;7.21;44.59
13604;BME280;24578;48.264;11.436;2023-03-15T15:14:21;96143.88;;;7.72;47.63
13604;BME280;24578;48.264;11.436;2023-03-15T15:17:43;96142.44;;;7.68;49.60
13604;BME280;24578;48.264;11.436;2023-03-15T15:24:36;96148.81;;;7.33;51.83
13604;BME280;24578;48.264;11.436;2023-03-15T15:27:58;96164.47;;;7.15;51.94
13604;BME280;24578;48.264;11.436;2023-03-15T15:31:21;96157.63;;;6.85;53.51
13604;BME280;24578;48.264;11.436;2023-03-15T15:34:43;96163.16;;;6.94;54.44
13604;BME280;24578;48.264;11.436;2023-03-15T15:38:12;96178.00;;;6.74;55.06
13604;BME280;24578;48.264;11.436;2023-03-15T15:41:33;96186.56;;;6.44;58.33
13604;BME280;24578;48.264;11.436;2023-03-15T15:44:55;96204.19;;;6.20;60.32
13604;BME280;24578;48.264;11.436;2023-03-15T15:48:17;96197.13;;;5.91;65.50
13604;BME280;24578;48.264;11.436;2023-03-15T15:51:44;96197.03;;;5.93;70.85
13604;BME280;24578;48.264;11.436;2023-03-15T15:55:20;96209.38;;;5.70;75.17
13604;BME280;24578;48.264;11.436;2023-03-15T15:58:50;96204.31;;;5.53;76.13
13604;BME280;24578;48.264;11.436;2023-03-15T16:02:13;96223.50;;;5.29;82.78
13604;BME280;24578;48.264;11.436;2023-03-15T16:05:43;96227.00;;;4.93;90.90
13604;BME280;24578;48.264;11.436;2023-03-15T16:09:07;96215.22;;;4.89;90.59
13604;BME280;24578;48.264;11.436;2023-03-15T16:12:29;96218.16;;;4.81;92.34
13604;BME280;24578;48.264;11.436;2023-03-15T16:15:54;96225.34;;;4.75;92.25
13604;BME280;24578;48.264;11.436;2023-03-15T16:19:16;96221.03;;;4.75;92.66
13604;BME280;24578;48.264;11.436;2023-03-15T16:22:41;96227.66;;;4.79;92.65
13604;BME280;24578;48.264;11.436;2023-03-15T16:26:04;96227.28;;;4.69;92.01
13604;BME280;24578;48.264;11.436;2023-03-15T16:30:09;96241.59;;;4.56;94.29
13604;BME280;24578;48.264;11.436;2023-03-15T16:33:22;96245.41;;;4.30;100.00
13604;BME280;24578;48.264;11.436;2023-03-15T16:36:46;96239.09;;;4.37;98.34
13604;BME280;24578;48.264;11.436;2023-03-15T16:40:20;96249.97;;;4.42;99.02
13604;BME280;24578;48.264;11.436;2023-03-15T16:43:44;96259.38;;;4.41;98.53
13604;BME280;24578;48.264;11.436;2023-03-15T16:47:06;96268.09;;;4.37;98.12
13604;BME280;24578;48.264;11.436;2023-03-15T16:50:29;96266.63;;;4.33;100.00
13604;BME280;24578;48.264;11.436;2023-03-15T16:53:51;96275.25;;;4.31;100.00
13604;BME280;24578;48.264;11.436;2023-03-15T16:57:19;96280.47;;;4.29;100.00
13604;BME280;24578;48.264;11.436;2023-03-15T17:00:42;96286.56;;;4.26;100.00
13604;BME280;24578;48.264;11.436;2023-03-15T17:04:05;96286.56;;;4.26;100.00
13604;BME280;24578;48.264;11.436;2023-03-15T17:07:31;96287.81;;;4.18;100.00
13604;BME280;24578;48.264;11.436;2023-03-15T17:10:54;96292.44;;;4.09;100.00
13604;BME280;24578;48.264;11.436;2023-03-15T17:14:29;96311.63;;;4.01;100.00
13604;BME280;24578;48.264;11.436;2023-03-15T17:17:54;96318.63;;;3.97;100.00
13604;BME280;24578;48.264;11.436;2023-03-15T17:21:21;96316.75;;;3.81;100.00
13604;BME280;24578;48.264;11.436;2023-03-15T17:24:46;96328.34;;;3.70;100.00
13604;BME280;24578;48.264;11.436;2023-03-15T17:28:08;96331.22;;;3.83;100.00
13604;BME280;24578;48.264;11.436;2023-03-15T17:31:33;96327.66;;;3.85;100.00
13604;BME280;24578;48.264;11.436;2023-03-15T17:34:55;96321.19;;;3.78;100.00
13604;BME280;24578;48.264;11.436;2023-03-15T17:38:20;96335.19;;;3.69;100.00
13604;BME280;24578;48.264;11.436;2023-03-15T17:41:45;96336.34;;;3.62;100.00
13604;BME280;24578;48.264;11.436;2023-03-15T17:45:18;96348.22;;;3.44;100.00
13604;BME280;24578;48.264;11.436;2023-03-15T17:48:41;96346.78;;;3.37;100.00
13604;BME280;24578;48.264;11.436;2023-03-15T17:52:03;96346.63;;;3.41;100.00
13604;BME280;24578;48.264;11.436;2023-03-15T17:55:27;96355.19;;;3.40;100.00
13604;BME280;24578;48.264;11.436;2023-03-15T17:58:49;96348.06;;;3.26;100.00
13604;BME280;24578;48.264;11.436;2023-03-15T18:02:14;96350.97;;;3.39;100.00
13604;BME280;24578;48.264;11.436;2023-03-15T18:05:36;96355.81;;;3.45;100.00
13604;BME280;24578;48.264;11.436;2023-03-15T18:08:58;96363.81;;;3.38;100.00
13604;BME280;24578;48.264;11.436;2023-03-15T18:12:20;96365.66;;;3.34;100.00
13604;BME280;24578;48.264;11.436;2023-03-15T18:15:44;96387.09;;;3.31;100.00
13604;BME280;24578;48.264;11.436;2023-03-15T18:19:06;96390.44;;;3.33;100.00
13604;BME280;24578;48.264;11.436;2023-03-15T18:22:28;96398.53;;;3.23;100.00
13604;BME280;24578;48.264;11.436;2023-03-15T18:25:50;96402.66;;;3.27;100.00
13604;BME280;24578;48.264;11.436;2023-03-15T18:29:11;96400.22;;;3.24;100.00
13604;BME280;24578;48.264;11.436;2023-03-15T18:32:33;96393.22;;;3.27;100.00
13604;BME280;24578;48.264;11.436;2023-03-15T18:35:55;96399.38;;;3.23;100.00
13604;BME280;24578;48.264;11.436;2023-03-15T18:39:17;96399.03;;;3.10;100.00